createdAt,value
2019-04-22T00:02:02.337Z,11.66
2019-04-22T00:04:40.308Z,11.72
2019-04-22T00:08:06.835Z,11.90
2019-04-22T00:11:21.173Z,11.89
2019-04-22T00:16:27.555Z,11.91
2019-04-22T00:24:10.684Z,11.78
2019-04-22T00:27:06.974Z,11.70
2019-04-22T00:29:49.808Z,11.72
2019-04-22T00:32:22.629Z,11.70
2019-04-22T00:37:28.639Z,11.57
2019-04-22T00:39:57.538Z,11.44
2019-04-22T00:42:37.504Z,11.48
2019-04-22T00:45:07.962Z,11.50
2019-04-22T00:50:23.535Z,11.18
2019-04-22T00:55:31.345Z,10.80
2019-04-22T00:58:05.805Z,10.68
2019-04-22T01:01:17.481Z,10.62
2019-04-22T01:03:47.489Z,10.81
2019-04-22T01:06:17.391Z,11.10
2019-04-22T01:08:51.253Z,11.24
2019-04-22T01:11:21.449Z,11.08
2019-04-22T01:13:44.230Z,10.96
2019-04-22T01:16:21.221Z,11.22
2019-04-22T01:18:42.404Z,11.40
2019-04-22T01:21:40.415Z,11.21
2019-04-22T01:24:38.890Z,11.08
2019-04-22T01:27:50.194Z,11.29
2019-04-22T01:30:32.452Z,11.24
2019-04-22T01:33:21.877Z,11.12
2019-04-22T01:36:04.328Z,11.03
2019-04-22T01:38:36.689Z,11.04
2019-04-22T01:41:20.207Z,11.10
2019-04-22T01:43:55.500Z,11.27
2019-04-22T01:46:21.355Z,11.24
2019-04-22T01:48:47.287Z,11.39
2019-04-22T01:51:04.816Z,11.31
2019-04-22T01:53:50.477Z,11.26
2019-04-22T01:56:14.043Z,11.38
2019-04-22T01:58:38.069Z,11.42
2019-04-22T02:01:18.495Z,11.43
2019-04-22T02:03:52.388Z,11.29
2019-04-22T02:06:25.438Z,11.08
2019-04-22T02:08:53.314Z,11.12
2019-04-22T02:11:27.852Z,11.25
2019-04-22T02:13:49.525Z,11.25
2019-04-22T02:16:21.466Z,11.28
2019-04-22T02:18:58.387Z,11.27
2019-04-22T02:21:20.224Z,11.21
2019-04-22T02:26:25.759Z,11.19
2019-04-22T02:29:10.997Z,11.26
2019-04-22T02:34:40.329Z,11.20
2019-04-22T02:37:13.044Z,11.17
2019-04-22T02:39:43.139Z,11.12
2019-04-22T02:44:58.428Z,10.89
2019-04-22T02:47:33.541Z,10.78
2019-04-22T02:50:06.562Z,10.93
2019-04-22T02:52:41.121Z,10.89
2019-04-22T02:55:23.435Z,10.99
2019-04-22T02:58:00.889Z,10.79
2019-04-22T03:06:15.946Z,10.63
2019-04-22T03:08:25.239Z,10.60
2019-04-22T03:11:19.008Z,10.69
2019-04-22T03:13:55.149Z,10.70
2019-04-22T03:23:58.607Z,10.13
2019-04-22T03:28:51.191Z,10.01
2019-04-22T03:32:40.283Z,10.21
2019-04-22T03:39:59.308Z,10.27
2019-04-22T03:44:38.617Z,10.49
2019-04-22T03:47:27.843Z,10.49
2019-04-22T03:55:31.015Z,10.01
2019-04-22T03:58:11.177Z,9.95
2019-04-22T04:03:25.283Z,9.90
2019-04-22T04:05:57.760Z,9.85
2019-04-22T04:08:39.137Z,10.00
2019-04-22T04:11:06.403Z,9.98
2019-04-22T04:13:54.306Z,10.05
2019-04-22T04:24:29.099Z,10.34
2019-04-22T04:26:37.268Z,10.31
2019-04-22T04:29:06.324Z,10.22
2019-04-22T04:31:32.602Z,10.10
2019-04-22T04:33:54.166Z,10.23
2019-04-22T04:37:09.026Z,10.12
2019-04-22T04:39:15.084Z,10.16
2019-04-22T04:42:14.411Z,10.08
2019-04-22T04:45:10.978Z,10.20
2019-04-22T04:50:01.485Z,10.29
2019-04-22T04:52:39.614Z,10.41
2019-04-22T04:57:33.726Z,10.32
2019-04-22T05:02:40.928Z,10.53
2019-04-22T05:07:38.545Z,10.79
2019-04-22T05:10:14.179Z,10.80
2019-04-22T05:12:45.319Z,10.87
2019-04-22T05:15:04.215Z,11.00
2019-04-22T05:18:06.080Z,11.01
2019-04-22T05:20:33.742Z,11.09
2019-04-22T05:22:44.759Z,11.29
2019-04-22T05:25:19.573Z,11.44
2019-04-22T05:28:10.348Z,11.49
2019-04-22T05:31:24.665Z,11.57
2019-04-22T05:33:47.963Z,11.65
2019-04-22T05:36:20.380Z,11.79
2019-04-22T05:38:58.191Z,11.96
2019-04-22T05:41:26.626Z,12.01
2019-04-22T05:43:59.907Z,12.08
2019-04-22T05:46:22.701Z,12.21
2019-04-22T05:49:18.186Z,12.30
2019-04-22T05:51:42.012Z,12.36
2019-04-22T05:54:18.924Z,12.49
2019-04-22T05:56:51.959Z,12.58
2019-04-22T06:02:05.096Z,12.76
2019-04-22T06:04:39.102Z,12.87
2019-04-22T06:07:20.757Z,12.93
2019-04-22T06:10:39.236Z,12.95
2019-04-22T06:13:17.734Z,13.03
2019-04-22T06:16:38.438Z,13.22
2019-04-22T06:19:07.486Z,13.31
2019-04-22T06:21:37.022Z,13.38
2019-04-22T06:24:27.847Z,13.51
2019-04-22T06:29:25.240Z,13.72
2019-04-22T06:32:17.482Z,13.76
2019-04-22T06:34:38.904Z,13.90
2019-04-22T06:37:07.367Z,13.96
2019-04-22T06:40:14.583Z,14.10
2019-04-22T06:42:45.526Z,14.17
2019-04-22T06:48:06.754Z,14.50
2019-04-22T06:50:52.817Z,15.03
2019-04-22T06:53:25.621Z,16.49
2019-04-22T06:55:51.349Z,18.25
2019-04-22T06:58:20.208Z,19.51
2019-04-22T07:00:54.773Z,20.50
2019-04-22T07:06:04.009Z,22.48
2019-04-22T07:09:02.415Z,22.04
2019-04-22T07:10:56.326Z,22.61
2019-04-22T07:13:29.118Z,22.68
2019-04-22T07:15:57.398Z,23.11
2019-04-22T07:18:31.220Z,24.02
2019-04-22T07:21:02.788Z,24.45
2019-04-22T07:29:17.194Z,24.68
2019-04-22T07:31:44.421Z,25.12
2019-04-22T07:34:15.763Z,24.88
2019-04-22T07:39:10.888Z,23.95
2019-04-22T07:41:43.179Z,24.95
2019-04-22T07:44:16.526Z,25.49
2019-04-22T07:46:41.738Z,24.86
2019-04-22T07:49:15.927Z,24.87
2019-04-22T07:54:13.304Z,24.37
2019-04-22T07:56:47.666Z,24.90
2019-04-22T07:59:15.216Z,23.62
2019-04-22T08:01:42.839Z,24.00
2019-04-22T08:06:47.755Z,24.45
2019-04-22T08:09:19.836Z,23.66
2019-04-22T08:15:04.025Z,23.46
2019-04-22T08:17:53.189Z,22.79
2019-04-22T08:20:02.798Z,22.84
2019-04-22T08:22:27.209Z,23.10
2019-04-22T08:25:06.312Z,23.36
2019-04-22T08:27:31.044Z,23.01
2019-04-22T08:30:12.325Z,22.77
2019-04-22T08:32:38.051Z,22.70
2019-04-22T08:35:11.286Z,22.02
2019-04-22T08:40:09.604Z,21.21
2019-04-22T08:42:48.219Z,21.64
2019-04-22T08:45:09.487Z,21.79
2019-04-22T08:47:36.165Z,21.71
2019-04-22T08:50:44.607Z,21.81
2019-04-22T08:53:16.088Z,22.06
2019-04-22T08:55:57.858Z,22.02
2019-04-22T09:00:53.718Z,21.82
2019-04-22T09:03:18.757Z,21.87
2019-04-22T09:05:57.809Z,21.80
2019-04-22T09:08:24.358Z,21.97
2019-04-22T09:10:51.819Z,22.05
2019-04-22T09:13:15.695Z,22.53
2019-04-22T09:15:48.782Z,22.23
2019-04-22T09:18:24.773Z,22.56
2019-04-22T09:21:04.743Z,22.56
2019-04-22T09:23:26.446Z,22.72
2019-04-22T09:25:48.613Z,22.40
2019-04-22T09:28:22.833Z,22.30
2019-04-22T09:31:28.984Z,22.45
2019-04-22T09:34:04.173Z,22.50
2019-04-22T09:36:37.198Z,22.63
2019-04-22T09:39:00.711Z,22.79
2019-04-22T09:41:32.931Z,22.66
2019-04-22T09:44:05.520Z,23.15
2019-04-22T09:46:35.318Z,23.19
2019-04-22T09:49:09.195Z,23.16
2019-04-22T09:51:37.425Z,23.09
2019-04-22T09:54:14.679Z,23.39
2019-04-22T09:56:37.465Z,23.27
2019-04-22T09:59:05.589Z,23.28
2019-04-22T10:04:34.979Z,23.20
2019-04-22T10:07:05.725Z,23.31
2019-04-22T10:12:43.178Z,23.59
2019-04-22T10:15:09.631Z,23.49
2019-04-22T10:17:47.286Z,23.26
2019-04-22T10:20:10.176Z,23.60
2019-04-22T10:22:46.463Z,23.50
2019-04-22T10:27:53.629Z,24.11
2019-04-22T10:30:08.500Z,24.13
2019-04-22T10:32:46.092Z,24.27
2019-04-22T10:37:30.113Z,24.47
2019-04-22T10:40:03.969Z,24.64
2019-04-22T10:45:59.902Z,24.69
2019-04-22T10:48:30.265Z,24.98
2019-04-22T10:51:01.003Z,25.08
2019-04-22T10:53:31.276Z,24.99
2019-04-22T10:56:00.977Z,24.56
2019-04-22T10:58:30.888Z,24.80
2019-04-22T11:01:00.156Z,24.60
2019-04-22T11:03:31.147Z,24.22
2019-04-22T11:06:01.279Z,24.12
2019-04-22T11:08:38.883Z,24.19
2019-04-22T11:11:16.709Z,24.61
2019-04-22T11:13:31.812Z,24.90
2019-04-22T11:16:03.304Z,25.07
2019-04-22T11:18:33.629Z,25.24
2019-04-22T11:21:02.684Z,24.90
2019-04-22T11:23:32.383Z,25.44
2019-04-22T11:26:01.874Z,25.49
2019-04-22T11:28:33.747Z,25.59
2019-04-22T11:31:02.678Z,25.50
2019-04-22T11:33:32.260Z,25.42
2019-04-22T11:36:02.044Z,25.80
2019-04-22T11:38:32.975Z,25.92
2019-04-22T11:41:03.491Z,26.15
2019-04-22T11:43:34.709Z,25.87
2019-04-22T11:46:03.454Z,25.71
2019-04-22T11:48:32.153Z,25.38
2019-04-22T11:51:02.050Z,26.22
2019-04-22T11:53:31.213Z,26.38
2019-04-22T11:56:00.565Z,26.12
2019-04-22T11:58:50.862Z,26.63
2019-04-22T12:01:21.006Z,26.87
2019-04-22T12:03:51.788Z,25.64
2019-04-22T12:06:22.165Z,25.57
2019-04-22T12:08:51.944Z,25.57
2019-04-22T12:14:11.795Z,26.29
2019-04-22T12:16:41.469Z,25.83
2019-04-22T12:19:11.407Z,25.70
2019-04-22T12:21:41.329Z,25.68
2019-04-22T12:24:11.032Z,25.93
2019-04-22T12:26:40.115Z,25.63
2019-04-22T12:29:11.031Z,25.65
2019-04-22T12:31:41.972Z,25.88
2019-04-22T12:34:11.312Z,25.71
2019-04-22T12:36:42.739Z,25.82
2019-04-22T12:39:11.760Z,25.79
2019-04-22T12:41:40.403Z,25.75
2019-04-22T12:44:09.406Z,26.21
2019-04-22T12:46:39.532Z,25.88
2019-04-22T12:49:08.208Z,25.84
2019-04-22T12:51:36.909Z,26.26
2019-04-22T12:54:06.861Z,26.63
2019-04-22T12:56:37.458Z,27.02
2019-04-22T12:59:07.633Z,26.81
2019-04-22T13:01:37.185Z,26.86
2019-04-22T13:04:10.224Z,27.55
2019-04-22T13:06:37.606Z,27.74
2019-04-22T13:09:47.272Z,27.90
2019-04-22T13:12:17.145Z,27.46
2019-04-22T13:14:46.835Z,26.88
2019-04-22T13:17:17.024Z,27.06
2019-04-22T13:19:45.924Z,27.54
2019-04-22T13:22:14.653Z,27.17
2019-04-22T13:24:43.862Z,26.75
2019-04-22T13:27:15.010Z,27.10
2019-04-22T13:29:46.558Z,27.64
2019-04-22T13:32:14.639Z,27.44
2019-04-22T13:34:48.188Z,27.87
2019-04-22T13:37:14.819Z,28.03
2019-04-22T13:39:45.068Z,27.79
2019-04-22T13:42:19.367Z,27.46
2019-04-22T13:44:46.130Z,27.77
2019-04-22T13:47:34.774Z,26.84
2019-04-22T13:50:23.820Z,26.84
2019-04-22T13:52:46.394Z,26.23
2019-04-22T13:55:16.215Z,26.11
2019-04-22T13:57:33.177Z,26.75
2019-04-22T13:59:54.150Z,27.02
2019-04-22T14:02:38.274Z,27.49
2019-04-22T14:05:48.742Z,27.65
2019-04-22T14:08:19.603Z,27.65
2019-04-22T14:10:50.200Z,27.35
2019-04-22T14:13:39.623Z,27.14
2019-04-22T14:16:09.232Z,26.75
2019-04-22T14:18:39.018Z,26.32
2019-04-22T14:21:09.111Z,26.39
2019-04-22T14:23:58.561Z,26.35
2019-04-22T14:26:45.233Z,26.53
2019-04-22T14:28:59.973Z,26.40
2019-04-22T14:31:30.776Z,26.21
2019-04-22T14:36:30.415Z,25.93
2019-04-22T14:38:59.731Z,25.95
2019-04-22T14:41:42.908Z,26.03
2019-04-22T14:44:12.633Z,26.09
2019-04-22T14:45:04.966Z,25.56
2019-04-22T14:47:04.052Z,25.00
2019-04-22T14:49:23.954Z,25.58
2019-04-22T14:51:58.834Z,25.74
2019-04-22T14:54:18.192Z,25.55
2019-04-22T14:56:32.303Z,25.75
2019-04-22T14:59:00.985Z,25.77
2019-04-22T15:01:30.768Z,25.77
2019-04-22T15:04:00.796Z,25.99
2019-04-22T15:06:31.807Z,26.05
2019-04-22T15:09:01.887Z,26.58
2019-04-22T15:11:44.844Z,26.39
2019-04-22T15:14:03.257Z,25.95
2019-04-22T15:17:06.898Z,26.55
2019-04-22T15:21:58.752Z,26.53
2019-04-22T15:24:29.491Z,26.67
2019-04-22T15:27:39.408Z,26.38
2019-04-22T15:30:49.058Z,26.58
2019-04-22T15:33:19.308Z,26.43
2019-04-22T15:35:49.466Z,26.46
2019-04-22T15:38:22.178Z,26.81
2019-04-22T15:40:49.068Z,26.90
2019-04-22T15:43:17.746Z,26.84
2019-04-22T15:45:46.711Z,27.07
2019-04-22T15:48:16.968Z,26.42
2019-04-22T15:50:46.696Z,26.08
2019-04-22T15:53:16.056Z,26.01
2019-04-22T15:55:44.982Z,25.64
2019-04-22T15:58:15.427Z,26.00
2019-04-22T16:01:29.822Z,26.01
2019-04-22T16:03:56.548Z,25.86
2019-04-22T16:06:26.335Z,26.12
2019-04-22T16:08:56.430Z,25.92
2019-04-22T16:11:25.077Z,25.83
2019-04-22T16:13:54.749Z,25.61
2019-04-22T16:16:24.804Z,25.52
2019-04-22T16:18:54.541Z,25.44
2019-04-22T16:21:32.716Z,25.25
2019-04-22T16:24:13.959Z,25.15
2019-04-22T16:27:02.477Z,25.34
2019-04-22T16:29:31.573Z,25.02
2019-04-22T16:32:03.034Z,24.96
2019-04-22T16:34:32.066Z,24.80
2019-04-22T16:37:00.863Z,24.91
2019-04-22T16:39:31.186Z,25.08
2019-04-22T16:42:00.606Z,25.06
2019-04-22T16:44:30.464Z,24.52
2019-04-22T16:47:01.578Z,24.45
2019-04-22T16:49:32.089Z,24.60
2019-04-22T16:52:01.452Z,24.78
2019-04-22T16:54:30.712Z,24.47
2019-04-22T16:57:01.914Z,24.09
2019-04-22T16:59:30.961Z,24.23
2019-04-22T17:02:19.054Z,23.94
2019-04-22T17:05:07.332Z,23.90
2019-04-22T17:07:36.212Z,23.69
2019-04-22T17:10:45.948Z,23.76
2019-04-22T17:13:19.698Z,23.82
2019-04-22T17:15:45.504Z,23.67
2019-04-22T17:18:15.069Z,23.35
2019-04-22T17:20:44.748Z,23.04
2019-04-22T17:23:15.769Z,22.94
2019-04-22T17:25:45.289Z,23.02
2019-04-22T17:28:15.084Z,22.73
2019-04-22T17:30:45.713Z,22.47
2019-04-22T17:33:14.967Z,22.37
2019-04-22T17:35:46.676Z,22.41
2019-04-22T17:38:23.571Z,22.26
2019-04-22T17:41:01.299Z,22.23
2019-04-22T17:43:47.768Z,22.04
2019-04-22T17:46:19.352Z,21.71
2019-04-22T17:52:10.686Z,21.92
2019-04-22T17:54:38.415Z,21.75
2019-04-22T17:57:31.632Z,21.47
2019-04-22T17:59:54.733Z,21.43
2019-04-22T18:02:24.993Z,21.35
2019-04-22T18:04:49.604Z,21.33
2019-04-22T18:07:36.967Z,21.12
2019-04-22T18:10:23.785Z,21.03
2019-04-22T18:12:40.164Z,20.85
2019-04-22T18:15:07.127Z,20.65
2019-04-22T18:17:38.646Z,20.52
2019-04-22T18:19:58.359Z,20.54
2019-04-22T18:22:21.977Z,20.50
2019-04-22T18:24:58.377Z,20.30
2019-04-22T18:30:02.225Z,20.29
2019-04-22T18:32:30.817Z,20.15
2019-04-22T18:34:55.473Z,19.84
2019-04-22T18:37:37.881Z,19.88
2019-04-22T18:40:02.149Z,19.85
2019-04-22T18:42:31.618Z,19.80
2019-04-22T18:45:23.445Z,19.71
2019-04-22T18:47:35.487Z,19.72
2019-04-22T18:50:02.813Z,19.73
2019-04-22T18:56:09.758Z,19.51
2019-04-22T18:58:33.468Z,19.54
2019-04-22T19:03:27.375Z,19.32
2019-04-22T19:06:24.356Z,19.16
2019-04-22T19:09:27.107Z,19.26
2019-04-22T19:12:10.361Z,19.16
2019-04-22T19:14:28.199Z,18.87
2019-04-22T19:17:06.009Z,18.78
2019-04-22T19:22:25.201Z,18.77
2019-04-22T19:24:41.698Z,18.52
2019-04-22T19:27:39.296Z,18.35
2019-04-22T19:30:14.066Z,18.28
2019-04-22T19:33:26.888Z,18.08
2019-04-22T19:35:56.304Z,18.21
2019-04-22T19:38:14.065Z,18.31
2019-04-22T19:41:00.919Z,18.27
2019-04-22T19:43:49.172Z,18.18
2019-04-22T19:46:18.242Z,17.99
2019-04-22T19:49:02.228Z,17.90
2019-04-22T19:51:34.029Z,17.86
2019-04-22T19:53:56.178Z,17.88
2019-04-22T19:56:17.785Z,17.82
2019-04-22T20:01:48.630Z,17.77
2019-04-22T20:09:35.139Z,17.59
2019-04-22T20:12:04.583Z,17.54
2019-04-22T20:14:34.891Z,17.53
2019-04-22T20:17:00.470Z,17.41
2019-04-22T20:22:09.665Z,17.39
2019-04-22T20:24:23.957Z,17.43
2019-04-22T20:27:10.821Z,17.30
2019-04-22T20:29:56.362Z,17.23
2019-04-22T20:32:10.962Z,17.15
2019-04-22T20:34:51.159Z,17.08
2019-04-22T20:37:33.067Z,17.10
2019-04-22T20:39:44.172Z,17.03
2019-04-22T20:42:23.527Z,17.07
2019-04-22T20:44:39.780Z,17.09
2019-04-22T20:47:09.223Z,17.06
2019-04-22T20:49:44.989Z,16.96
2019-04-22T20:52:19.263Z,16.94
2019-04-22T20:54:40.640Z,16.79
2019-04-22T20:57:07.364Z,16.81
2019-04-22T20:59:42.914Z,16.81
2019-04-22T21:02:11.518Z,16.81
2019-04-22T21:04:35.599Z,16.70
2019-04-22T21:07:09.165Z,16.63
2019-04-22T21:09:43.170Z,16.66
2019-04-22T21:12:09.085Z,16.71
2019-04-22T21:15:06.822Z,16.63
2019-04-22T21:17:35.734Z,16.60
2019-04-22T21:20:06.890Z,16.52
2019-04-22T21:22:38.655Z,16.51
2019-04-22T21:25:02.462Z,16.56
2019-04-22T21:27:40.633Z,16.48
2019-04-22T21:29:58.128Z,16.51
2019-04-22T21:35:22.949Z,16.31
2019-04-22T21:37:57.129Z,16.20
2019-04-22T21:40:20.162Z,16.34
2019-04-22T21:42:58.287Z,16.19
2019-04-22T21:45:15.338Z,16.21
2019-04-22T21:50:51.024Z,16.02
2019-04-22T21:53:17.747Z,16.07
2019-04-22T21:55:50.410Z,15.98
2019-04-22T21:58:38.271Z,15.96
2019-04-22T22:06:08.717Z,15.88
2019-04-22T22:08:46.212Z,15.80
2019-04-22T22:11:13.600Z,15.64
2019-04-22T22:14:09.146Z,15.54
2019-04-22T22:16:33.218Z,15.59
2019-04-22T22:19:06.688Z,15.51
2019-04-22T22:22:30.187Z,15.47
2019-04-22T22:24:35.909Z,15.51
2019-04-22T22:27:18.805Z,15.47
2019-04-22T22:33:04.176Z,15.38
2019-04-22T22:35:31.000Z,15.40
2019-04-22T22:38:19.462Z,15.35
2019-04-22T22:40:35.773Z,15.21
2019-04-22T22:43:15.947Z,15.27
2019-04-22T22:45:40.806Z,15.22
2019-04-22T22:51:15.084Z,15.14
2019-04-22T22:53:55.885Z,15.08
2019-04-22T22:56:48.589Z,15.08
2019-04-22T22:59:09.332Z,15.11
2019-04-22T23:01:39.536Z,15.07
2019-04-22T23:04:16.291Z,15.01
2019-04-22T23:06:44.349Z,15.02
2019-04-22T23:09:29.323Z,14.89
2019-04-22T23:12:06.468Z,14.95
2019-04-22T23:14:26.360Z,14.91
2019-04-22T23:16:46.766Z,14.80
2019-04-22T23:19:09.025Z,14.82
2019-04-22T23:21:44.063Z,14.81
2019-04-22T23:27:26.204Z,14.68
2019-04-22T23:30:05.387Z,14.70
2019-04-22T23:35:48.870Z,14.70
2019-04-22T23:38:23.161Z,14.66
2019-04-22T23:40:54.189Z,14.68
2019-04-22T23:43:32.787Z,14.67
2019-04-22T23:48:25.957Z,14.70
2019-04-22T23:51:07.141Z,14.69
2019-04-22T23:56:09.170Z,14.47
